createdAt,value
2023-12-10T00:00:35.218Z,7.36
2023-12-10T00:01:35.302Z,7.35
2023-12-10T00:02:32.786Z,7.40
2023-12-10T00:03:32.233Z,7.43
2023-12-10T00:04:32.372Z,7.45
2023-12-10T00:05:32.145Z,7.42
2023-12-10T00:06:32.170Z,7.45
2023-12-10T00:07:32.132Z,7.50
2023-12-10T00:08:32.109Z,7.42
2023-12-10T00:09:32.117Z,7.42
2023-12-10T00:10:32.151Z,7.45
2023-12-10T00:11:32.044Z,7.45
2023-12-10T00:12:32.450Z,7.47
2023-12-10T00:13:32.004Z,7.50
2023-12-10T00:14:32.030Z,7.47
2023-12-10T00:15:32.042Z,7.50
2023-12-10T00:16:32.005Z,7.47
2023-12-10T00:17:31.953Z,7.53
2023-12-10T00:18:32.077Z,7.56
2023-12-10T00:19:31.982Z,7.54
2023-12-10T00:20:34.952Z,7.56
2023-12-10T00:21:34.943Z,7.57
2023-12-10T00:22:34.913Z,7.57
2023-12-10T00:23:31.884Z,7.58
2023-12-10T00:24:31.926Z,7.58
2023-12-10T00:25:31.837Z,7.63
2023-12-10T00:26:31.887Z,7.63
2023-12-10T00:27:31.821Z,7.69
2023-12-10T00:28:31.801Z,7.72
2023-12-10T00:29:31.788Z,7.72
2023-12-10T00:30:31.809Z,7.69
2023-12-10T00:31:31.812Z,7.72
2023-12-10T00:32:31.828Z,7.72
2023-12-10T00:33:31.884Z,7.67
2023-12-10T00:34:31.801Z,7.70
2023-12-10T00:35:31.728Z,7.70
2023-12-10T00:36:31.752Z,7.69
2023-12-10T00:37:31.711Z,7.72
2023-12-10T00:38:31.693Z,7.73
2023-12-10T00:39:31.715Z,7.73
2023-12-10T00:40:31.650Z,7.77
2023-12-10T00:41:34.681Z,7.77
2023-12-10T00:42:34.679Z,7.79
2023-12-10T00:43:34.616Z,7.76
2023-12-10T00:44:31.597Z,7.73
2023-12-10T00:45:31.658Z,7.77
2023-12-10T00:46:31.552Z,7.83
2023-12-10T00:47:31.683Z,7.85
2023-12-10T00:48:31.669Z,7.87
2023-12-10T00:49:31.632Z,7.90
2023-12-10T00:50:31.535Z,7.85
2023-12-10T00:51:31.515Z,7.87
2023-12-10T00:52:31.529Z,7.90
2023-12-10T00:53:31.488Z,7.91
2023-12-10T00:54:31.467Z,7.90
2023-12-10T00:55:31.469Z,7.93
2023-12-10T00:56:31.429Z,7.94
2023-12-10T00:57:31.454Z,7.94
2023-12-10T00:58:31.406Z,7.90
2023-12-10T00:59:31.384Z,7.97
2023-12-10T01:00:31.432Z,7.98
2023-12-10T01:01:31.507Z,8.05
2023-12-10T01:02:34.359Z,8.05
2023-12-10T01:03:34.364Z,8.00
2023-12-10T01:04:34.373Z,7.94
2023-12-10T01:05:31.356Z,7.98
2023-12-10T01:06:31.335Z,8.00
2023-12-10T01:07:31.328Z,8.00
2023-12-10T01:08:31.283Z,8.05
2023-12-10T01:09:31.279Z,8.08
2023-12-10T01:10:31.244Z,8.08
2023-12-10T01:11:31.273Z,8.06
2023-12-10T01:12:31.577Z,8.09
2023-12-10T01:13:31.203Z,8.09
2023-12-10T01:14:31.192Z,8.06
2023-12-10T01:15:31.438Z,8.09
2023-12-10T01:16:31.160Z,8.10
2023-12-10T01:17:31.264Z,8.12
2023-12-10T01:18:31.290Z,8.12
2023-12-10T01:19:31.268Z,8.09
2023-12-10T01:20:31.109Z,8.09
2023-12-10T01:21:31.143Z,8.13
2023-12-10T01:22:31.457Z,8.16
2023-12-10T01:23:34.063Z,8.16
2023-12-10T01:24:34.173Z,8.12
2023-12-10T01:25:34.053Z,8.12
2023-12-10T01:26:31.025Z,8.13
2023-12-10T01:27:31.068Z,8.16
2023-12-10T01:28:31.081Z,8.16
2023-12-10T01:29:30.980Z,8.19
2023-12-10T01:30:31.017Z,8.19
2023-12-10T01:31:30.951Z,8.19
2023-12-10T01:32:31.414Z,8.23
2023-12-10T01:33:31.158Z,8.26
2023-12-10T01:34:31.247Z,8.23
2023-12-10T01:35:31.163Z,8.20
2023-12-10T01:36:30.937Z,8.23
2023-12-10T01:37:30.910Z,8.26
2023-12-10T01:38:30.868Z,8.30
2023-12-10T01:39:30.923Z,8.26
2023-12-10T01:40:30.835Z,8.26
2023-12-10T01:41:30.823Z,8.30
2023-12-10T01:42:31.135Z,8.31
2023-12-10T01:43:30.821Z,8.36
2023-12-10T01:44:33.825Z,8.37
2023-12-10T01:45:33.817Z,8.31
2023-12-10T01:46:33.771Z,8.33
2023-12-10T01:47:30.791Z,8.41
2023-12-10T01:48:30.798Z,8.42
2023-12-10T01:49:30.988Z,8.45
2023-12-10T01:50:30.707Z,8.44
2023-12-10T01:51:30.721Z,8.45
2023-12-10T01:52:30.907Z,8.41
2023-12-10T01:53:30.658Z,8.44
2023-12-10T01:54:30.786Z,8.46
2023-12-10T01:55:30.670Z,8.51
2023-12-10T01:56:30.665Z,8.52
2023-12-10T01:57:30.634Z,8.51
2023-12-10T01:58:30.613Z,8.51
2023-12-10T01:59:30.611Z,8.52
2023-12-10T02:00:30.579Z,8.53
2023-12-10T02:01:30.637Z,8.53
2023-12-10T02:02:30.918Z,8.53
2023-12-10T02:03:30.546Z,8.56
2023-12-10T02:04:30.566Z,8.52
2023-12-10T02:05:33.584Z,8.49
2023-12-10T02:06:33.550Z,8.49
2023-12-10T02:07:33.553Z,8.51
2023-12-10T02:08:30.500Z,8.52
2023-12-10T02:09:30.514Z,8.53
2023-12-10T02:10:30.420Z,8.56
2023-12-10T02:11:30.440Z,8.56
2023-12-10T02:12:30.663Z,8.55
2023-12-10T02:13:30.377Z,8.52
2023-12-10T02:14:30.419Z,8.56
2023-12-10T02:15:30.420Z,8.55
2023-12-10T02:16:30.344Z,8.55
2023-12-10T02:17:30.345Z,8.56
2023-12-10T02:18:30.549Z,8.58
2023-12-10T02:19:30.385Z,8.58
2023-12-10T02:20:30.339Z,8.58
2023-12-10T02:21:30.316Z,8.56
2023-12-10T02:22:30.446Z,8.60
2023-12-10T02:23:30.248Z,8.64
2023-12-10T02:24:30.264Z,8.63
2023-12-10T02:25:30.225Z,8.67
2023-12-10T02:26:33.273Z,8.69
2023-12-10T02:27:33.215Z,8.70
2023-12-10T02:28:33.186Z,8.71
2023-12-10T02:29:30.178Z,8.74
2023-12-10T02:30:30.255Z,8.79
2023-12-10T02:31:30.141Z,8.71
2023-12-10T02:32:30.454Z,8.71
2023-12-10T02:33:30.266Z,8.73
2023-12-10T02:34:30.185Z,8.76
2023-12-10T02:35:30.106Z,8.78
2023-12-10T02:36:30.134Z,8.78
2023-12-10T02:37:30.061Z,8.74
2023-12-10T02:38:30.127Z,8.78
2023-12-10T02:39:30.045Z,8.73
2023-12-10T02:40:30.047Z,8.78
2023-12-10T02:41:30.000Z,8.69
2023-12-10T02:42:30.183Z,8.70
2023-12-10T02:43:29.980Z,8.69
2023-12-10T02:44:30.038Z,8.69
2023-12-10T02:45:30.005Z,8.64
2023-12-10T02:46:29.935Z,8.67
2023-12-10T02:47:33.013Z,8.66
2023-12-10T02:48:33.056Z,8.56
2023-12-10T02:49:33.097Z,8.55
2023-12-10T02:50:29.883Z,8.53
2023-12-10T02:51:29.925Z,8.58
2023-12-10T02:52:30.101Z,8.53
2023-12-10T02:53:29.870Z,8.56
2023-12-10T02:54:29.898Z,8.58
2023-12-10T02:55:29.856Z,8.60
2023-12-10T02:56:29.810Z,8.60
2023-12-10T02:57:29.805Z,8.55
2023-12-10T02:58:29.784Z,8.61
2023-12-10T02:59:29.790Z,8.64
2023-12-10T03:00:29.791Z,8.67
2023-12-10T03:01:29.789Z,8.69
2023-12-10T03:02:29.963Z,8.70
2023-12-10T03:03:29.842Z,8.71
2023-12-10T03:04:29.711Z,8.66
2023-12-10T03:05:29.741Z,8.61
2023-12-10T03:06:29.699Z,8.63
2023-12-10T03:07:29.711Z,8.58
2023-12-10T03:08:32.641Z,8.58
2023-12-10T03:09:32.687Z,8.60
2023-12-10T03:10:32.636Z,8.53
2023-12-10T03:11:29.598Z,8.53
2023-12-10T03:12:29.860Z,8.55
2023-12-10T03:13:29.621Z,8.58
2023-12-10T03:14:29.590Z,8.55
2023-12-10T03:15:29.565Z,8.52
2023-12-10T03:16:29.525Z,8.51
2023-12-10T03:17:29.532Z,8.45
2023-12-10T03:18:29.642Z,8.42
2023-12-10T03:19:29.625Z,8.38
2023-12-10T03:20:29.472Z,8.41
2023-12-10T03:21:29.516Z,8.41
2023-12-10T03:22:29.763Z,8.41
2023-12-10T03:23:29.441Z,8.45
2023-12-10T03:24:29.478Z,8.46
2023-12-10T03:25:29.451Z,8.49
2023-12-10T03:26:29.397Z,8.45
2023-12-10T03:27:29.413Z,8.44
2023-12-10T03:28:29.393Z,8.44
2023-12-10T03:29:32.366Z,8.41
2023-12-10T03:30:32.395Z,8.42
2023-12-10T03:31:32.343Z,8.36
2023-12-10T03:32:29.715Z,8.38
2023-12-10T03:33:29.521Z,8.45
2023-12-10T03:34:29.407Z,8.46
2023-12-10T03:35:29.281Z,8.44
2023-12-10T03:36:29.326Z,8.44
2023-12-10T03:37:29.251Z,8.52
2023-12-10T03:38:29.233Z,8.55
2023-12-10T03:39:29.267Z,8.55
2023-12-10T03:40:29.217Z,8.53
2023-12-10T03:41:29.194Z,8.56
2023-12-10T03:42:29.512Z,8.56
2023-12-10T03:43:29.168Z,8.56
2023-12-10T03:44:29.163Z,8.61
2023-12-10T03:45:29.210Z,8.63
2023-12-10T03:46:29.117Z,8.64
2023-12-10T03:47:29.160Z,8.67
2023-12-10T03:48:29.245Z,8.66
2023-12-10T03:49:29.171Z,8.64
2023-12-10T03:50:32.075Z,8.60
2023-12-10T03:51:32.903Z,8.60
2023-12-10T03:52:32.398Z,8.55
2023-12-10T03:53:29.029Z,8.53
2023-12-10T03:54:29.087Z,8.61
2023-12-10T03:55:29.020Z,8.61
2023-12-10T03:56:28.980Z,8.63
2023-12-10T03:57:29.007Z,8.63
2023-12-10T03:58:28.970Z,8.64
2023-12-10T03:59:28.951Z,8.69
2023-12-10T04:00:29.024Z,8.66
2023-12-10T04:01:29.039Z,8.69
2023-12-10T04:02:29.107Z,8.71
2023-12-10T04:03:28.955Z,8.73
2023-12-10T04:04:28.905Z,8.69
2023-12-10T04:05:28.895Z,8.69
2023-12-10T04:06:28.922Z,8.70
2023-12-10T04:07:28.860Z,8.71
2023-12-10T04:08:28.827Z,8.63
2023-12-10T04:09:28.839Z,8.58
2023-12-10T04:10:28.820Z,8.58
2023-12-10T04:11:31.855Z,8.61
2023-12-10T04:12:32.140Z,8.56
2023-12-10T04:13:31.761Z,8.56
2023-12-10T04:14:28.735Z,8.61
2023-12-10T04:15:28.753Z,8.61
2023-12-10T04:16:28.744Z,8.56
2023-12-10T04:17:28.764Z,8.58
2023-12-10T04:18:28.854Z,8.55
2023-12-10T04:19:28.787Z,8.58
2023-12-10T04:20:28.680Z,8.60
2023-12-10T04:21:28.699Z,8.60
2023-12-10T04:22:28.986Z,8.66
2023-12-10T04:23:28.677Z,8.66
2023-12-10T04:24:28.670Z,8.70
2023-12-10T04:25:28.600Z,8.70
2023-12-10T04:26:28.581Z,8.70
2023-12-10T04:27:28.611Z,8.71
2023-12-10T04:28:28.551Z,8.70
2023-12-10T04:29:28.593Z,8.66
2023-12-10T04:30:28.595Z,8.60
2023-12-10T04:31:28.511Z,8.61
2023-12-10T04:32:31.825Z,8.60
2023-12-10T04:33:31.647Z,8.49
2023-12-10T04:34:31.582Z,8.46
2023-12-10T04:35:28.458Z,8.48
2023-12-10T04:36:28.493Z,8.48
2023-12-10T04:37:28.431Z,8.53
2023-12-10T04:38:28.442Z,8.52
2023-12-10T04:39:28.448Z,8.53
2023-12-10T04:40:28.441Z,8.51
2023-12-10T04:41:28.389Z,8.51
2023-12-10T04:42:28.742Z,8.49
2023-12-10T04:43:28.395Z,8.53
2023-12-10T04:44:28.340Z,8.58
2023-12-10T04:45:28.427Z,8.56
2023-12-10T04:46:28.374Z,8.48
2023-12-10T04:47:28.312Z,8.48
2023-12-10T04:48:28.548Z,8.44
2023-12-10T04:49:28.376Z,8.52
2023-12-10T04:50:28.322Z,8.45
2023-12-10T04:51:28.392Z,8.52
2023-12-10T04:52:28.578Z,8.53
2023-12-10T04:53:31.214Z,8.56
2023-12-10T04:54:31.258Z,8.45
2023-12-10T04:55:31.193Z,8.44
2023-12-10T04:56:28.274Z,8.46
2023-12-10T04:57:28.250Z,8.49
2023-12-10T04:58:28.341Z,8.48
2023-12-10T04:59:28.134Z,8.49
2023-12-10T05:00:28.194Z,8.44
2023-12-10T05:01:28.225Z,8.48
2023-12-10T05:02:28.430Z,8.51
2023-12-10T05:03:28.187Z,8.52
2023-12-10T05:04:28.126Z,8.51
2023-12-10T05:05:28.104Z,8.48
2023-12-10T05:06:28.117Z,8.45
2023-12-10T05:07:28.025Z,8.44
2023-12-10T05:08:28.021Z,8.45
2023-12-10T05:09:28.011Z,8.48
2023-12-10T05:10:31.089Z,8.48
2023-12-10T05:11:27.977Z,8.51
2023-12-10T05:12:28.352Z,8.48
2023-12-10T05:13:27.965Z,8.51
2023-12-10T05:14:30.941Z,8.49
2023-12-10T05:15:31.029Z,8.48
2023-12-10T05:16:30.918Z,8.45
2023-12-10T05:17:27.913Z,8.44
2023-12-10T05:18:28.048Z,8.48
2023-12-10T05:19:28.128Z,8.48
2023-12-10T05:20:27.855Z,8.49
2023-12-10T05:21:27.901Z,8.46
2023-12-10T05:22:28.012Z,8.51
2023-12-10T05:23:27.819Z,8.49
2023-12-10T05:24:27.806Z,8.52
2023-12-10T05:25:27.777Z,8.51
2023-12-10T05:26:27.783Z,8.52
2023-12-10T05:27:27.827Z,8.48
2023-12-10T05:28:27.739Z,8.46
2023-12-10T05:29:27.739Z,8.51
2023-12-10T05:30:27.835Z,8.53
2023-12-10T05:31:27.703Z,8.49
2023-12-10T05:32:28.009Z,8.49
2023-12-10T05:33:27.864Z,8.49
2023-12-10T05:34:27.801Z,8.46
2023-12-10T05:35:30.641Z,8.49
2023-12-10T05:36:30.665Z,8.46
2023-12-10T05:37:30.643Z,8.41
2023-12-10T05:38:27.651Z,8.42
2023-12-10T05:39:27.727Z,8.46
2023-12-10T05:40:27.609Z,8.51
2023-12-10T05:41:27.622Z,8.48
2023-12-10T05:42:27.934Z,8.49
2023-12-10T05:43:27.590Z,8.53
2023-12-10T05:44:27.536Z,8.51
2023-12-10T05:45:27.567Z,8.51
2023-12-10T05:46:27.579Z,8.46
2023-12-10T05:47:27.634Z,8.46
2023-12-10T05:48:27.549Z,8.48
2023-12-10T05:49:27.640Z,8.49
2023-12-10T05:50:27.434Z,8.49
2023-12-10T05:51:27.520Z,8.51
2023-12-10T05:52:27.648Z,8.48
2023-12-10T05:53:27.433Z,8.53
2023-12-10T05:54:27.425Z,8.52
2023-12-10T05:55:27.371Z,8.49
2023-12-10T05:56:30.390Z,8.51
2023-12-10T05:57:30.392Z,8.48
2023-12-10T05:58:30.329Z,8.42
2023-12-10T05:59:27.311Z,8.48
2023-12-10T06:00:27.435Z,8.52
2023-12-10T06:01:27.340Z,8.56
2023-12-10T06:02:55.905Z,8.60
2023-12-10T06:03:27.340Z,8.61
2023-12-10T06:04:27.352Z,8.61
2023-12-10T06:05:27.284Z,8.63
2023-12-10T06:06:27.301Z,8.56
2023-12-10T06:07:27.233Z,8.56
2023-12-10T06:08:27.242Z,8.52
2023-12-10T06:09:27.258Z,8.49
2023-12-10T06:10:27.261Z,8.52
2023-12-10T06:11:27.230Z,8.51
2023-12-10T06:12:27.551Z,8.52
2023-12-10T06:13:27.215Z,8.46
2023-12-10T06:14:27.188Z,8.41
2023-12-10T06:15:27.228Z,8.42
2023-12-10T06:16:27.083Z,8.48
2023-12-10T06:17:30.195Z,8.48
2023-12-10T06:18:30.210Z,8.45
2023-12-10T06:19:30.168Z,8.42
2023-12-10T06:20:27.034Z,8.38
2023-12-10T06:21:27.049Z,8.41
2023-12-10T06:22:27.198Z,8.45
2023-12-10T06:23:29.418Z,8.44
2023-12-10T06:24:27.004Z,8.44
2023-12-10T06:25:27.012Z,8.46
2023-12-10T06:26:26.951Z,8.46
2023-12-10T06:27:26.981Z,8.45
2023-12-10T06:28:26.924Z,8.49
2023-12-10T06:29:26.927Z,8.49
2023-12-10T06:30:26.998Z,8.46
2023-12-10T06:31:26.927Z,8.44
2023-12-10T06:32:27.073Z,8.44
2023-12-10T06:33:26.976Z,8.42
2023-12-10T06:34:27.067Z,8.42
2023-12-10T06:35:26.832Z,8.41
2023-12-10T06:36:26.848Z,8.42
2023-12-10T06:37:26.865Z,8.38
2023-12-10T06:38:29.800Z,8.34
2023-12-10T06:39:29.830Z,8.41
2023-12-10T06:40:29.785Z,8.42
2023-12-10T06:41:26.776Z,8.46
2023-12-10T06:42:26.983Z,8.45
2023-12-10T06:43:26.763Z,8.45
2023-12-10T06:44:26.704Z,8.44
2023-12-10T06:45:26.721Z,8.42
2023-12-10T06:46:26.684Z,8.45
2023-12-10T06:47:26.680Z,8.48
2023-12-10T06:48:26.835Z,8.48
2023-12-10T06:49:26.814Z,8.45
2023-12-10T06:50:26.627Z,8.48
2023-12-10T06:51:26.663Z,8.46
2023-12-10T06:52:26.757Z,8.51
2023-12-10T06:53:26.618Z,8.48
2023-12-10T06:54:26.616Z,8.51
2023-12-10T06:55:26.651Z,8.49
2023-12-10T06:56:26.545Z,8.53
2023-12-10T06:57:26.570Z,8.51
2023-12-10T06:58:26.520Z,8.49
2023-12-10T06:59:29.512Z,8.46
2023-12-10T07:00:29.613Z,8.51
2023-12-10T07:01:32.163Z,8.46
2023-12-10T07:02:26.703Z,8.42
2023-12-10T07:03:26.508Z,8.44
2023-12-10T07:04:26.442Z,8.46
2023-12-10T07:05:26.529Z,8.49
2023-12-10T07:06:26.475Z,8.48
2023-12-10T07:07:26.398Z,8.49
2023-12-10T07:08:26.398Z,8.48
2023-12-10T07:09:26.392Z,8.53
2023-12-10T07:10:26.373Z,8.49
2023-12-10T07:11:26.370Z,8.48
2023-12-10T07:12:26.443Z,8.49
2023-12-10T07:13:26.363Z,8.48
2023-12-10T07:14:26.308Z,8.48
2023-12-10T07:15:26.312Z,8.52
2023-12-10T07:16:26.308Z,8.53
2023-12-10T07:17:26.320Z,8.52
2023-12-10T07:18:26.487Z,8.55
2023-12-10T07:19:26.311Z,8.49
2023-12-10T07:20:29.225Z,8.51
2023-12-10T07:21:29.252Z,8.44
2023-12-10T07:22:29.600Z,8.45
2023-12-10T07:23:26.199Z,8.45
2023-12-10T07:24:26.263Z,8.51
2023-12-10T07:25:26.173Z,8.51
2023-12-10T07:26:26.167Z,8.52
2023-12-10T07:27:26.147Z,8.51
2023-12-10T07:28:26.127Z,8.52
2023-12-10T07:29:26.104Z,8.52
2023-12-10T07:30:26.166Z,8.51
2023-12-10T07:31:26.074Z,8.48
2023-12-10T07:32:26.213Z,8.55
2023-12-10T07:33:26.141Z,8.58
2023-12-10T07:34:26.138Z,8.53
2023-12-10T07:35:26.036Z,8.51
2023-12-10T07:36:26.084Z,8.52
2023-12-10T07:37:25.993Z,8.55
2023-12-10T07:38:25.976Z,8.55
2023-12-10T07:39:25.979Z,8.52
2023-12-10T07:40:26.014Z,8.61
2023-12-10T07:41:29.005Z,8.61
2023-12-10T07:42:29.237Z,8.58
2023-12-10T07:43:28.927Z,8.56
2023-12-10T07:44:25.950Z,8.58
2023-12-10T07:45:25.906Z,8.56
2023-12-10T07:46:25.884Z,8.55
2023-12-10T07:47:25.869Z,8.56
2023-12-10T07:48:25.985Z,8.55
2023-12-10T07:49:26.007Z,8.55
2023-12-10T07:50:25.860Z,8.53
2023-12-10T07:51:25.927Z,8.53
2023-12-10T07:52:25.795Z,8.53
2023-12-10T07:53:25.785Z,8.53
2023-12-10T07:54:25.794Z,8.58
2023-12-10T07:55:25.748Z,8.60
2023-12-10T07:56:25.783Z,8.58
2023-12-10T07:57:25.760Z,8.55
2023-12-10T07:58:25.715Z,8.58
2023-12-10T07:59:26.490Z,8.58
2023-12-10T08:00:25.728Z,8.58
2023-12-10T08:01:25.765Z,8.58
2023-12-10T08:02:28.971Z,8.63
2023-12-10T08:03:28.683Z,8.67
2023-12-10T08:04:28.650Z,8.70
2023-12-10T08:05:25.628Z,8.71
2023-12-10T08:06:25.674Z,8.70
2023-12-10T08:07:25.586Z,8.69
2023-12-10T08:08:25.567Z,8.73
2023-12-10T08:09:25.575Z,8.73
2023-12-10T08:10:25.563Z,8.69
2023-12-10T08:11:25.530Z,8.69
2023-12-10T08:12:25.613Z,8.73
2023-12-10T08:13:25.583Z,8.76
2023-12-10T08:14:25.494Z,8.78
2023-12-10T08:15:25.487Z,8.81
2023-12-10T08:16:25.468Z,8.76
2023-12-10T08:17:25.477Z,8.78
2023-12-10T08:18:25.720Z,8.78
2023-12-10T08:19:25.594Z,8.81
2023-12-10T08:20:25.427Z,8.84
2023-12-10T08:21:25.404Z,8.87
2023-12-10T08:22:25.471Z,8.87
2023-12-10T08:23:28.418Z,8.82
2023-12-10T08:24:28.521Z,8.81
2023-12-10T08:25:31.741Z,8.76
2023-12-10T08:26:25.341Z,8.78
2023-12-10T08:27:25.419Z,8.81
2023-12-10T08:28:25.365Z,8.84
2023-12-10T08:29:25.343Z,8.85
2023-12-10T08:30:25.284Z,8.84
2023-12-10T08:31:25.263Z,8.92
2023-12-10T08:32:25.302Z,8.95
2023-12-10T08:33:25.276Z,8.92
2023-12-10T08:34:25.368Z,8.91
2023-12-10T08:35:25.254Z,8.95
2023-12-10T08:36:25.292Z,8.94
2023-12-10T08:37:25.183Z,8.89
2023-12-10T08:38:25.167Z,8.97
2023-12-10T08:39:25.180Z,8.97
2023-12-10T08:40:25.139Z,9.03
2023-12-10T08:41:25.153Z,9.02
2023-12-10T08:42:25.142Z,9.06
2023-12-10T08:43:25.111Z,9.10
2023-12-10T08:44:28.098Z,9.14
2023-12-10T08:45:28.128Z,9.11
2023-12-10T08:46:28.095Z,9.04
2023-12-10T08:47:25.039Z,9.10
2023-12-10T08:48:25.161Z,9.10
2023-12-10T08:49:25.081Z,9.06
2023-12-10T08:50:25.021Z,9.06
2023-12-10T08:51:25.042Z,9.04
2023-12-10T08:52:24.977Z,9.04
2023-12-10T08:53:24.969Z,9.06
2023-12-10T08:54:25.023Z,9.06
2023-12-10T08:55:24.935Z,9.11
2023-12-10T08:56:24.917Z,9.13
2023-12-10T08:57:24.996Z,9.16
2023-12-10T08:58:24.893Z,9.14
2023-12-10T08:59:24.888Z,9.18
2023-12-10T09:00:24.900Z,9.16
2023-12-10T09:01:25.005Z,9.16
2023-12-10T09:02:24.843Z,9.18
2023-12-10T09:03:24.982Z,9.25
2023-12-10T09:04:24.881Z,9.23
2023-12-10T09:05:27.979Z,9.21
2023-12-10T09:06:27.813Z,9.25
2023-12-10T09:07:27.782Z,9.26
2023-12-10T09:08:24.770Z,9.31
2023-12-10T09:09:24.801Z,9.39
2023-12-10T09:10:24.766Z,9.37
2023-12-10T09:11:24.767Z,9.41
2023-12-10T09:12:24.727Z,9.43
2023-12-10T09:13:27.727Z,9.43
2023-12-10T09:14:24.701Z,9.43
2023-12-10T09:15:24.722Z,9.51
2023-12-10T09:16:24.658Z,9.55
2023-12-10T09:17:24.692Z,9.54
2023-12-10T09:18:24.758Z,9.54
2023-12-10T09:19:24.766Z,9.47
2023-12-10T09:20:24.601Z,9.48
2023-12-10T09:21:24.653Z,9.43
2023-12-10T09:22:26.522Z,9.48
2023-12-10T09:23:24.570Z,9.54
2023-12-10T09:24:24.571Z,9.48
2023-12-10T09:25:24.527Z,9.48
2023-12-10T09:26:27.549Z,9.47
2023-12-10T09:27:27.601Z,9.46
2023-12-10T09:28:27.492Z,9.44
2023-12-10T09:29:24.480Z,9.44
2023-12-10T09:30:24.473Z,9.47
2023-12-10T09:31:24.457Z,9.50
2023-12-10T09:32:24.477Z,9.55
2023-12-10T09:33:24.595Z,9.56
2023-12-10T09:34:26.140Z,9.56
2023-12-10T09:35:24.403Z,9.59
2023-12-10T09:36:24.444Z,9.59
2023-12-10T09:37:24.401Z,9.58
2023-12-10T09:38:24.351Z,9.58
2023-12-10T09:39:24.409Z,9.64
2023-12-10T09:40:24.335Z,9.68
2023-12-10T09:41:24.307Z,9.73
2023-12-10T09:42:24.342Z,9.73
2023-12-10T09:43:24.328Z,9.65
2023-12-10T09:44:24.273Z,9.65
2023-12-10T09:45:24.278Z,9.69
2023-12-10T09:46:24.242Z,9.64
2023-12-10T09:47:27.252Z,9.62
2023-12-10T09:48:27.349Z,9.64
2023-12-10T09:49:27.305Z,9.65
2023-12-10T09:50:24.185Z,9.65
2023-12-10T09:51:24.202Z,9.65
2023-12-10T09:52:24.153Z,9.66
2023-12-10T09:53:24.142Z,9.65
2023-12-10T09:54:24.178Z,9.64
2023-12-10T09:55:24.122Z,9.69
2023-12-10T09:56:24.120Z,9.66
2023-12-10T09:57:24.114Z,9.72
2023-12-10T09:58:24.066Z,9.76
2023-12-10T09:59:24.141Z,9.74
2023-12-10T10:00:24.121Z,9.77
2023-12-10T10:01:24.225Z,9.77
2023-12-10T10:02:24.037Z,9.79
2023-12-10T10:03:24.127Z,9.79
2023-12-10T10:04:24.375Z,9.74
2023-12-10T10:05:24.075Z,9.76
2023-12-10T10:06:24.016Z,9.79
2023-12-10T10:07:23.957Z,9.76
2023-12-10T10:08:26.936Z,9.79
2023-12-10T10:09:34.886Z,9.76
2023-12-10T10:10:28.095Z,9.77
2023-12-10T10:11:23.902Z,9.83
2023-12-10T10:12:23.943Z,9.79
2023-12-10T10:13:23.916Z,9.69
2023-12-10T10:14:23.860Z,9.76
2023-12-10T10:15:23.880Z,9.77
2023-12-10T10:16:23.841Z,9.76
2023-12-10T10:17:23.822Z,9.77
2023-12-10T10:18:23.920Z,9.80
2023-12-10T10:19:23.953Z,9.83
2023-12-10T10:20:23.820Z,9.86
2023-12-10T10:21:23.784Z,9.77
2023-12-10T10:22:23.750Z,9.66
2023-12-10T10:23:23.766Z,9.74
2023-12-10T10:24:23.825Z,9.77
2023-12-10T10:25:23.792Z,9.77
2023-12-10T10:26:23.725Z,9.79
2023-12-10T10:27:23.744Z,9.68
2023-12-10T10:28:23.679Z,9.66
2023-12-10T10:29:26.650Z,9.69
2023-12-10T10:30:26.732Z,9.72
2023-12-10T10:31:26.657Z,9.65
2023-12-10T10:32:23.630Z,9.68
2023-12-10T10:33:23.739Z,9.65
2023-12-10T10:34:23.678Z,9.66
2023-12-10T10:35:23.652Z,9.64
2023-12-10T10:36:23.590Z,9.66
2023-12-10T10:37:23.577Z,9.74
2023-12-10T10:38:23.538Z,9.74
2023-12-10T10:39:23.562Z,9.72
2023-12-10T10:40:23.526Z,9.74
2023-12-10T10:41:23.520Z,9.79
2023-12-10T10:42:23.566Z,9.89
2023-12-10T10:43:23.459Z,9.89
2023-12-10T10:44:23.461Z,9.95
2023-12-10T10:45:23.524Z,9.94
2023-12-10T10:46:23.446Z,9.94
2023-12-10T10:47:23.487Z,9.98
2023-12-10T10:48:23.606Z,10.02
2023-12-10T10:49:23.550Z,10.05
2023-12-10T10:50:26.467Z,10.09
2023-12-10T10:51:26.443Z,10.01
2023-12-10T10:52:26.351Z,10.02
2023-12-10T10:53:23.331Z,9.99
2023-12-10T10:54:23.359Z,10.12
2023-12-10T10:55:23.381Z,10.19
2023-12-10T10:56:23.310Z,10.25
2023-12-10T10:57:23.334Z,10.30
2023-12-10T10:58:23.258Z,10.34
2023-12-10T10:59:23.258Z,10.30
2023-12-10T11:00:23.360Z,10.30
2023-12-10T11:01:23.333Z,10.28
2023-12-10T11:02:23.208Z,10.34
2023-12-10T11:03:23.272Z,10.38
2023-12-10T11:04:23.256Z,10.31
2023-12-10T11:05:23.385Z,10.30
2023-12-10T11:06:23.355Z,10.15
2023-12-10T11:07:23.211Z,10.16
2023-12-10T11:08:23.144Z,10.19
2023-12-10T11:09:23.171Z,10.17
2023-12-10T11:10:23.114Z,10.17
2023-12-10T11:11:26.898Z,10.23
2023-12-10T11:12:26.122Z,10.30
2023-12-10T11:13:26.097Z,10.26
2023-12-10T11:14:23.135Z,10.34
2023-12-10T11:15:23.214Z,10.37
2023-12-10T11:16:23.024Z,10.30
2023-12-10T11:17:23.067Z,10.38
2023-12-10T11:18:23.141Z,10.40
2023-12-10T11:19:23.135Z,10.44
2023-12-10T11:20:22.992Z,10.48
2023-12-10T11:21:23.015Z,10.48
2023-12-10T11:22:22.973Z,10.48
2023-12-10T11:23:22.936Z,10.49
2023-12-10T11:24:22.994Z,10.48
2023-12-10T11:25:22.932Z,10.33
2023-12-10T11:26:22.944Z,10.41
2023-12-10T11:27:22.950Z,10.44
2023-12-10T11:28:22.883Z,10.48
2023-12-10T11:29:22.862Z,10.53
2023-12-10T11:30:22.898Z,10.53
2023-12-10T11:31:22.862Z,10.60
2023-12-10T11:32:25.915Z,10.59
2023-12-10T11:33:25.998Z,10.56
2023-12-10T11:34:25.879Z,10.51
2023-12-10T11:35:22.841Z,10.41
2023-12-10T11:36:36.084Z,10.38
2023-12-10T11:37:23.801Z,10.48
2023-12-10T11:38:22.751Z,10.44
2023-12-10T11:39:22.775Z,10.46
2023-12-10T11:40:22.738Z,10.42
2023-12-10T11:41:22.783Z,10.40
2023-12-10T11:42:22.746Z,10.37
2023-12-10T11:43:22.666Z,10.38
2023-12-10T11:44:22.661Z,10.33
2023-12-10T11:45:22.797Z,10.28
2023-12-10T11:46:26.242Z,10.31
2023-12-10T11:47:23.672Z,10.40
2023-12-10T11:48:22.930Z,10.48
2023-12-10T11:49:22.767Z,10.48
2023-12-10T11:50:22.583Z,10.42
2023-12-10T11:51:22.614Z,10.37
2023-12-10T11:52:22.580Z,10.34
2023-12-10T11:53:25.556Z,10.22
2023-12-10T11:54:25.556Z,10.31
2023-12-10T11:55:25.526Z,10.22
2023-12-10T11:56:22.492Z,10.17
2023-12-10T11:57:22.526Z,10.25
2023-12-10T11:58:22.477Z,10.22
2023-12-10T11:59:22.477Z,10.13
2023-12-10T12:00:22.463Z,10.07
2023-12-10T12:01:22.632Z,10.01
2023-12-10T12:02:22.447Z,9.99
2023-12-10T12:03:30.007Z,9.97
2023-12-10T12:04:22.512Z,9.95
2023-12-10T12:05:22.515Z,9.92
2023-12-10T12:06:22.524Z,9.91
2023-12-10T12:07:22.415Z,9.92
2023-12-10T12:08:22.377Z,9.94
2023-12-10T12:09:22.384Z,9.95
2023-12-10T12:10:22.302Z,9.98
2023-12-10T12:11:23.439Z,10.02
2023-12-10T12:12:22.338Z,10.04
2023-12-10T12:13:22.270Z,10.09
2023-12-10T12:14:25.316Z,10.09
2023-12-10T12:15:25.292Z,10.12
2023-12-10T12:16:25.222Z,10.09
2023-12-10T12:17:22.216Z,10.02
2023-12-10T12:18:22.274Z,10.07
2023-12-10T12:19:22.250Z,10.04
2023-12-10T12:20:22.199Z,10.07
2023-12-10T12:21:22.186Z,10.05
2023-12-10T12:22:22.166Z,10.12
2023-12-10T12:23:22.192Z,10.09
2023-12-10T12:24:22.154Z,10.12
2023-12-10T12:25:22.122Z,10.05
2023-12-10T12:26:22.142Z,10.15
2023-12-10T12:27:22.130Z,10.20
2023-12-10T12:28:22.078Z,10.23
2023-12-10T12:29:22.046Z,10.22
2023-12-10T12:30:22.125Z,10.13
2023-12-10T12:31:22.018Z,10.17
2023-12-10T12:32:29.370Z,10.22
2023-12-10T12:33:23.136Z,10.22
2023-12-10T12:34:22.110Z,10.22
2023-12-10T12:35:24.999Z,10.16
2023-12-10T12:36:25.044Z,10.20
2023-12-10T12:37:24.969Z,10.15
2023-12-10T12:38:21.938Z,10.13
2023-12-10T12:39:21.975Z,10.12
2023-12-10T12:40:21.901Z,10.09
2023-12-10T12:41:21.909Z,10.10
2023-12-10T12:42:21.941Z,10.05
2023-12-10T12:43:21.884Z,10.04
2023-12-10T12:44:21.860Z,9.97
2023-12-10T12:45:21.913Z,9.99
2023-12-10T12:46:21.825Z,10.01
2023-12-10T12:47:21.821Z,10.01
2023-12-10T12:48:22.072Z,10.02
2023-12-10T12:49:22.054Z,10.09
2023-12-10T12:50:21.768Z,10.04
2023-12-10T12:51:21.781Z,10.05
2023-12-10T12:52:21.810Z,10.05
2023-12-10T12:53:21.728Z,10.01
2023-12-10T12:54:21.764Z,9.95
2023-12-10T12:55:21.724Z,9.89
2023-12-10T12:56:24.690Z,9.91
2023-12-10T12:57:24.733Z,9.86
2023-12-10T12:58:24.697Z,9.84
2023-12-10T12:59:21.649Z,9.82
2023-12-10T13:00:21.697Z,9.79
2023-12-10T13:01:21.675Z,9.83
2023-12-10T13:02:21.615Z,9.83
2023-12-10T13:03:21.688Z,9.80
2023-12-10T13:04:21.730Z,9.89
2023-12-10T13:05:21.634Z,9.91
2023-12-10T13:06:21.666Z,9.95
2023-12-10T13:07:21.615Z,9.92
2023-12-10T13:08:21.565Z,9.84
2023-12-10T13:09:21.638Z,9.84
2023-12-10T13:10:21.501Z,9.89
2023-12-10T13:11:21.487Z,9.94
2023-12-10T13:12:21.498Z,9.91
2023-12-10T13:13:21.455Z,9.91
2023-12-10T13:14:21.452Z,9.89